Terminal Aerodrome Forecast
Issued by NWS Houston/Galveston, TX

Home | Current Version | Previous Version | Text Only | Print | Product List | Glossary On
Versions: 1 2 3 4 5 6 7 8 9 10 11 12 13 14 15 16
000
FTUS44 KHGX 211722
TAFGLS
TAF
KGLS 211722Z 2118/2218 13010KT P6SM SCT025
     FM221000 16007KT P6SM VCSH SCT025
     FM221500 12006KT P6SM SCT025=

USA.gov is the U.S. government's official web portal to all federal, state and local government web resources and services.